KPWK/PWK METAR and TAF weather

Enter ICAO airport designator
Station Type Date Time Source
KPWK METAR 2022/06/28 15:52 UTC NOAA

KPWK 281552Z 27006KT 10SM CLR 27/12 A3023 RMK AO2 SLP233 T02670117


Station Type Date Time Source
KPWK Decoded METAR 2022/06/28 15:52 UTC NOAA

CHICAGO EXECUTIVE AIRPORT, IL, United States (KPWK) 42-07N 087-54W 203M
Jun 28, 2022 - 11:52 AM EDT / 2022.06.28 1552 UTC
Wind: from the W (270 degrees) at 7 MPH (6 KT):0
Visibility: 10 mile(s):0
Sky conditions: clear
Temperature: 80.1 F (26.7 C)
Dew Point: 53.1 F (11.7 C)
Relative Humidity: 39%
Pressure (altimeter): 30.23 in. Hg (1023 hPa)
ob: KPWK 281552Z 27006KT 10SM CLR 27/12 A3023 RMK AO2 SLP233 T02670117
cycle: 16

Station Type Date Time Source
KPWK TAF UTC NOAA

Error!

Example: see airport list